Time;durP1;ratioP1;P1;durP2;ratioP2;P2;SDS_P1;SDS_P2;PMS_P1;PMS_P2;Temp;Humidity;BMP_temperature;BMP_pressure;BME280_temperature;BME280_humidity;BME280_pressure;Samples;Min_cycle;Max_cycle;Signal;HPM_P1;HPM_P2
2020/12/04 00:00:07;;;;;;;10.30;8.88;;;-2.80;76.20;;;;;;5097421;29;20051;-82
2020/12/04 00:02:39;;;;;;;11.18;8.25;;;-2.90;76.20;;;;;;5095643;29;20454;-81
2020/12/04 00:05:11;;;;;;;9.75;8.48;;;-2.90;76.10;;;;;;5110113;28;20135;-81
2020/12/04 00:07:43;;;;;;;17.30;10.30;;;-2.80;76.40;;;;;;5095593;29;20122;-81
2020/12/04 00:10:14;;;;;;;14.52;10.00;;;-2.80;75.90;;;;;;5093859;29;20044;-81
2020/12/04 00:12:46;;;;;;;10.98;8.77;;;-2.80;75.80;;;;;;5109691;29;20048;-82
2020/12/04 00:15:18;;;;;;;9.57;8.45;;;-2.80;76.20;;;;;;5106586;29;20059;-82
2020/12/04 00:17:49;;;;;;;9.10;8.20;;;-2.80;76.70;;;;;;5111214;29;20054;-82
2020/12/04 00:20:21;;;;;;;9.95;8.95;;;-2.90;77.20;;;;;;5119794;28;20048;-82
2020/12/04 00:22:55;;;;;;;10.40;8.70;;;-2.80;77.20;;;;;;5104475;29;20095;-81
2020/12/04 00:25:26;;;;;;;10.23;9.13;;;-2.80;76.40;;;;;;5104349;29;20108;-81
2020/12/04 00:27:57;;;;;;;12.02;9.95;;;-2.80;76.40;;;;;;5119074;28;20052;-81
2020/12/04 00:30:29;;;;;;;10.73;9.60;;;-2.80;76.40;;;;;;5100920;29;20051;-81
2020/12/04 00:33:00;;;;;;;9.02;8.13;;;-2.80;76.80;;;;;;5106813;29;20059;-82
2020/12/04 00:35:32;;;;;;;8.50;7.70;;;-2.70;76.70;;;;;;5092792;29;20082;-82
2020/12/04 00:38:03;;;;;;;8.40;7.60;;;-2.70;77.60;;;;;;5108057;29;20055;-80
2020/12/04 00:40:35;;;;;;;7.70;7.00;;;-2.60;78.50;;;;;;5105610;29;20740;-81
2020/12/04 00:43:06;;;;;;;8.75;7.95;;;-2.60;78.80;;;;;;5103643;29;20051;-81
2020/12/04 00:45:38;;;;;;;8.05;7.35;;;-2.50;78.90;;;;;;5107722;29;20509;-81
2020/12/04 00:48:09;;;;;;;8.30;7.60;;;-2.50;78.30;;;;;;5107040;29;20071;-81
2020/12/04 00:50:41;;;;;;;10.88;9.25;;;-2.50;79.10;;;;;;5122733;28;20111;-82
2020/12/04 00:53:13;;;;;;;8.90;8.00;;;-2.50;77.90;;;;;;5122566;28;20055;-82
2020/12/04 00:55:49;;;;;;;8.07;7.38;;;-2.40;78.20;;;;;;5107525;29;20050;-81
2020/12/04 00:58:22;;;;;;;7.93;7.22;;;-2.50;79.80;;;;;;5094405;29;20044;-80
2020/12/04 01:00:53;;;;;;;7.90;7.20;;;-2.40;80.50;;;;;;5092763;29;20048;-81
2020/12/04 01:03:25;;;;;;;8.00;7.30;;;-2.40;80.70;;;;;;5119834;28;20103;-81
2020/12/04 01:05:57;;;;;;;8.02;7.30;;;-2.30;80.80;;;;;;5107496;29;20048;-80
2020/12/04 01:08:28;;;;;;;8.57;7.78;;;-2.20;81.20;;;;;;5107377;29;20051;-81
2020/12/04 01:11:00;;;;;;;7.95;7.25;;;-2.20;79.00;;;;;;5099973;29;20130;-81
2020/12/04 01:13:32;;;;;;;8.18;7.47;;;-2.10;79.30;;;;;;5105611;29;20072;-81
2020/12/04 01:16:03;;;;;;;8.25;7.53;;;-2.10;79.40;;;;;;5105774;29;20056;-82
2020/12/04 01:18:36;;;;;;;8.95;8.15;;;-2.00;79.40;;;;;;5108408;29;20048;-81
2020/12/04 01:21:10;;;;;;;8.35;7.65;;;-2.00;78.80;;;;;;5105847;29;20072;-81
2020/12/04 01:23:42;;;;;;;8.85;8.05;;;-2.10;78.10;;;;;;5107774;29;20067;-81
2020/12/04 01:26:13;;;;;;;8.30;7.50;;;-2.10;78.00;;;;;;5104610;29;20051;-82
2020/12/04 01:28:45;;;;;;;10.00;8.98;;;-2.00;78.80;;;;;;5101261;29;20098;-83
2020/12/04 01:31:17;;;;;;;9.13;8.13;;;-2.00;77.90;;;;;;5099343;29;20047;-83
2020/12/04 01:33:48;;;;;;;8.40;7.70;;;-2.00;77.70;;;;;;5095974;29;20047;-81
2020/12/04 01:36:19;;;;;;;9.63;8.73;;;-1.90;78.50;;;;;;5104901;28;20208;-81
2020/12/04 01:38:54;;;;;;;9.00;8.10;;;-1.80;76.70;;;;;;5090987;29;20050;-81
2020/12/04 01:41:25;;;;;;;9.82;8.93;;;-1.80;76.60;;;;;;5092316;29;20043;-82
2020/12/04 01:43:57;;;;;;;9.77;8.48;;;-2.00;76.20;;;;;;5090013;29;20126;-81
2020/12/04 01:46:28;;;;;;;8.30;7.50;;;-2.00;77.10;;;;;;5091474;29;20102;-82
2020/12/04 01:49:00;;;;;;;7.93;7.22;;;-1.90;78.60;;;;;;5092280;29;20051;-81
2020/12/04 01:51:32;;;;;;;8.52;7.72;;;-1.80;78.80;;;;;;5091647;29;20572;-81
2020/12/04 01:54:04;;;;;;;10.52;8.88;;;-1.80;77.60;;;;;;5079040;29;20107;-82
2020/12/04 01:56:39;;;;;;;8.95;8.15;;;-1.80;76.90;;;;;;5091698;29;20525;-81
2020/12/04 01:59:10;;;;;;;9.20;8.40;;;-1.70;76.10;;;;;;5093146;29;20073;-81
2020/12/04 02:01:44;;;;;;;8.60;7.80;;;-1.70;76.50;;;;;;5079724;29;20134;-81
2020/12/04 02:04:15;;;;;;;9.60;8.60;;;-1.70;77.20;;;;;;5104432;28;20046;-81
2020/12/04 02:06:52;;;;;;;8.52;7.72;;;-1.60;76.00;;;;;;5090708;29;20099;-81
2020/12/04 02:09:29;;;;;;;9.63;8.30;;;-1.70;75.20;;;;;;5094148;29;20082;-80
2020/12/04 02:12:04;;;;;;;8.50;7.72;;;-1.70;75.50;;;;;;5105000;28;20048;-81
2020/12/04 02:14:35;;;;;;;9.05;8.15;;;-1.70;75.20;;;;;;5090642;29;20056;-80
2020/12/04 02:17:07;;;;;;;8.23;7.43;;;-1.70;75.20;;;;;;5104658;28;20050;-81
2020/12/04 02:19:41;;;;;;;9.13;8.27;;;-1.80;75.40;;;;;;5090738;29;20040;-81
2020/12/04 02:22:12;;;;;;;9.40;8.40;;;-1.80;75.50;;;;;;5090402;29;20159;-81
2020/12/04 02:24:44;;;;;;;7.20;6.60;;;-1.80;75.70;;;;;;5094035;29;20050;-82
2020/12/04 02:27:16;;;;;;;8.73;7.90;;;-1.70;78.30;;;;;;5097046;28;20036;-81
2020/12/04 02:29:47;;;;;;;8.80;8.00;;;-1.60;77.50;;;;;;5094609;29;20095;-81
2020/12/04 02:32:18;;;;;;;8.50;7.80;;;-1.50;76.50;;;;;;5097565;29;20177;-82
2020/12/04 02:34:50;;;;;;;8.32;7.63;;;-1.50;77.80;;;;;;5089315;29;20051;-81
2020/12/04 02:37:21;;;;;;;8.13;7.47;;;-1.30;77.40;;;;;;5099577;29;20048;-82
2020/12/04 02:39:53;;;;;;;8.50;7.80;;;-1.10;77.00;;;;;;5101843;29;20462;-82
2020/12/04 02:42:24;;;;;;;7.90;7.30;;;-1.00;77.30;;;;;;5102705;29;20047;-82
2020/12/04 02:44:55;;;;;;;8.50;7.75;;;-0.90;76.70;;;;;;5099739;29;20043;-84
2020/12/04 02:47:27;;;;;;;9.50;8.60;;;-0.70;76.20;;;;;;5101247;29;20409;-83
2020/12/04 02:49:58;;;;;;;11.73;10.52;;;-0.70;74.80;;;;;;5115109;29;20048;-84
2020/12/04 02:52:30;;;;;;;11.57;10.38;;;-0.70;74.50;;;;;;5113365;29;20675;-83
2020/12/04 02:55:02;;;;;;;11.57;10.40;;;-0.70;74.40;;;;;;5119025;28;20051;-83
2020/12/04 02:57:34;;;;;;;12.10;10.43;;;-0.80;73.90;;;;;;5080019;29;20064;-84
2020/12/04 03:00:05;;;;;;;11.60;10.40;;;-0.80;73.40;;;;;;5093488;29;20075;-84
2020/12/04 03:02:36;;;;;;;11.43;10.27;;;-0.80;73.70;;;;;;5116746;28;20103;-81
2020/12/04 03:05:08;;;;;;;11.18;10.07;;;-0.80;73.50;;;;;;5095070;29;20544;-80
2020/12/04 03:07:40;;;;;;;11.50;10.30;;;-0.80;73.40;;;;;;5096718;29;20099;-82
2020/12/04 03:10:11;;;;;;;13.85;10.02;;;-0.80;73.20;;;;;;5093417;29;20051;-82
2020/12/04 03:12:43;;;;;;;10.75;9.75;;;-0.80;73.20;;;;;;5096833;29;20461;-83
2020/12/04 03:15:15;;;;;;;10.73;9.63;;;-0.90;73.50;;;;;;5098507;29;20039;-82
2020/12/04 03:17:46;;;;;;;10.38;9.30;;;-0.90;73.70;;;;;;5097589;29;20040;-82
2020/12/04 03:20:18;;;;;;;10.40;9.30;;;-0.80;73.80;;;;;;5096772;29;20098;-82
2020/12/04 03:22:49;;;;;;;11.23;10.13;;;-0.80;73.70;;;;;;5095665;29;20032;-82
2020/12/04 03:25:20;;;;;;;10.88;9.77;;;-0.80;73.70;;;;;;5097405;29;20055;-82
2020/12/04 03:27:52;;;;;;;10.90;9.80;;;-0.80;73.60;;;;;;5094019;29;20127;-82
2020/12/04 03:30:23;;;;;;;10.82;9.80;;;-0.80;73.70;;;;;;5093223;29;20043;-82
2020/12/04 03:32:56;;;;;;;12.20;10.45;;;-0.80;73.80;;;;;;5093108;29;20091;-82
2020/12/04 03:35:28;;;;;;;10.48;9.38;;;-0.80;73.80;;;;;;5100337;29;20039;-82
2020/12/04 03:37:59;;;;;;;11.02;9.90;;;-0.80;74.10;;;;;;5094844;29;20114;-83
2020/12/04 03:40:31;;;;;;;11.30;10.20;;;-0.80;74.20;;;;;;5093480;29;20067;-81
2020/12/04 03:43:03;;;;;;;9.70;8.80;;;-0.80;74.30;;;;;;5095393;29;20066;-82
2020/12/04 03:45:34;;;;;;;9.98;9.07;;;-0.90;75.40;;;;;;5093062;29;20157;-82
2020/12/04 03:48:06;;;;;;;9.80;8.90;;;-0.90;76.10;;;;;;5091006;29;20047;-82
2020/12/04 03:50:37;;;;;;;9.85;8.85;;;-0.80;75.70;;;;;;5092610;29;20056;-82
2020/12/04 03:53:09;;;;;;;9.80;8.90;;;-0.80;75.60;;;;;;5094094;29;20115;-81
2020/12/04 03:55:40;;;;;;;9.35;8.55;;;-0.80;75.30;;;;;;5092608;29;20053;-82
2020/12/04 03:58:12;;;;;;;10.10;9.10;;;-0.80;76.40;;;;;;5109470;28;20152;-82
2020/12/04 04:00:44;;;;;;;10.55;9.32;;;-0.90;75.90;;;;;;5093030;29;20051;-82
2020/12/04 04:03:15;;;;;;;9.98;9.18;;;-0.90;76.10;;;;;;5104054;28;20043;-80
2020/12/04 04:05:47;;;;;;;10.35;9.45;;;-0.90;76.10;;;;;;5094102;29;20071;-83
2020/12/04 04:08:18;;;;;;;10.95;9.82;;;-0.80;76.00;;;;;;5093525;29;20509;-83
2020/12/04 04:10:49;;;;;;;10.63;9.63;;;-0.80;75.70;;;;;;5105326;28;20071;-83
2020/12/04 04:13:21;;;;;;;11.10;10.00;;;-0.70;75.40;;;;;;5093917;29;20040;-83
2020/12/04 04:15:52;;;;;;;10.38;9.45;;;-0.70;75.10;;;;;;5106820;28;20418;-83
2020/12/04 04:18:24;;;;;;;10.73;9.73;;;-0.70;75.00;;;;;;5093994;29;20047;-83
2020/12/04 04:20:55;;;;;;;11.05;10.02;;;-0.70;74.80;;;;;;5093404;29;20040;-82
2020/12/04 04:23:28;;;;;;;10.30;9.40;;;-0.70;74.60;;;;;;5091736;29;20458;-82
2020/12/04 04:25:59;;;;;;;10.63;9.73;;;-0.70;75.00;;;;;;5094693;29;20043;-82
2020/12/04 04:28:31;;;;;;;10.15;9.23;;;-0.70;75.60;;;;;;5094185;29;20131;-81
2020/12/04 04:31:03;;;;;;;9.98;9.07;;;-0.80;75.70;;;;;;5093045;29;20071;-83
2020/12/04 04:33:34;;;;;;;10.05;9.15;;;-0.90;75.90;;;;;;5094871;29;20090;-81
2020/12/04 04:36:07;;;;;;;9.90;9.00;;;-0.90;76.70;;;;;;5092459;29;20107;-82
2020/12/04 04:38:39;;;;;;;9.68;8.88;;;-0.90;76.90;;;;;;5094547;29;20127;-81
2020/12/04 04:41:10;;;;;;;12.18;10.98;;;-0.90;76.40;;;;;;5094313;29;20103;-82
2020/12/04 04:43:42;;;;;;;11.63;10.43;;;-0.80;76.20;;;;;;5094607;29;20413;-82
2020/12/04 04:46:19;;;;;;;11.27;10.18;;;-0.80;75.60;;;;;;5093066;29;20100;-82
2020/12/04 04:48:54;;;;;;;12.15;10.98;;;-0.80;75.30;;;;;;5108079;28;20043;-82
2020/12/04 04:51:26;;;;;;;12.55;11.20;;;-0.80;75.10;;;;;;5093751;29;20044;-82
2020/12/04 04:54:01;;;;;;;12.63;11.40;;;-0.80;74.80;;;;;;5092490;29;20804;-82
2020/12/04 04:56:32;;;;;;;11.90;10.38;;;-0.80;74.50;;;;;;5109502;28;20048;-82
2020/12/04 04:59:06;;;;;;;11.50;10.30;;;-0.80;74.70;;;;;;5092207;29;20075;-82
2020/12/04 05:01:38;;;;;;;11.68;10.48;;;-0.80;75.10;;;;;;5092330;29;20054;-82
2020/12/04 05:04:10;;;;;;;11.57;10.38;;;-0.90;75.30;;;;;;5091504;29;20104;-82
2020/12/04 05:06:42;;;;;;;13.00;11.70;;;-0.90;75.40;;;;;;5108994;28;20086;-82
2020/12/04 05:09:25;;;;;;;13.73;11.90;;;-0.80;75.10;;;;;;5095387;29;20128;-82
2020/12/04 05:11:59;;;;;;;12.60;11.30;;;-0.80;74.90;;;;;;5092872;29;20051;-82
2020/12/04 05:14:31;;;;;;;10.70;9.60;;;-0.90;74.80;;;;;;5093786;29;20035;-82
2020/12/04 05:17:10;;;;;;;11.63;10.45;;;-0.90;74.70;;;;;;5091049;29;20398;-83
2020/12/04 05:19:42;;;;;;;10.98;9.98;;;-0.90;74.80;;;;;;5093916;29;20051;-83
2020/12/04 05:22:16;;;;;;;11.13;9.70;;;-0.80;74.60;;;;;;5092444;29;20044;-82
2020/12/04 05:24:47;;;;;;;10.52;9.00;;;-0.90;74.60;;;;;;5093332;29;20513;-82
2020/12/04 05:27:27;;;;;;;9.98;8.98;;;-0.90;74.60;;;;;;5091428;29;20051;-82
2020/12/04 05:30:00;;;;;;;9.57;8.27;;;-0.90;74.90;;;;;;5091980;29;20040;-82
2020/12/04 05:32:32;;;;;;;9.55;8.65;;;-0.90;75.60;;;;;;5092787;29;20043;-82
2020/12/04 05:35:08;;;;;;;9.20;8.40;;;-1.00;76.00;;;;;;5109218;28;20102;-82
2020/12/04 05:37:39;;;;;;;8.88;8.07;;;-0.90;76.40;;;;;;5092294;29;20074;-83
2020/12/04 05:40:23;;;;;;;9.68;8.77;;;-1.00;76.80;;;;;;5107704;28;20537;-83
2020/12/04 05:42:55;;;;;;;9.77;8.80;;;-0.90;76.00;;;;;;5092389;29;20413;-82
2020/12/04 05:45:26;;;;;;;11.57;9.25;;;-0.90;75.60;;;;;;5073165;29;20114;-81
2020/12/04 05:47:58;;;;;;;10.13;9.13;;;-0.90;75.10;;;;;;5091113;29;20098;-82
2020/12/04 05:50:30;;;;;;;10.60;9.50;;;-1.00;75.10;;;;;;5091797;29;20047;-82
2020/12/04 05:53:01;;;;;;;11.95;10.38;;;-1.00;75.00;;;;;;5088778;29;20040;-82
2020/12/04 05:55:34;;;;;;;10.98;9.88;;;-1.00;74.90;;;;;;5091144;29;20177;-80
2020/12/04 05:58:09;;;;;;;11.93;10.65;;;-1.10;75.20;;;;;;5097198;29;20048;-82
2020/12/04 06:00:41;;;;;;;10.45;9.43;;;-1.10;75.00;;;;;;5095997;29;20801;-82
2020/12/04 06:03:13;;;;;;;11.32;9.55;;;-1.10;74.80;;;;;;5095149;29;20450;-82
2020/12/04 06:05:44;;;;;;;10.70;9.60;;;-1.30;75.20;;;;;;5091547;29;20166;-84
2020/12/04 06:08:16;;;;;;;16.50;12.63;;;-1.20;75.00;;;;;;5094738;29;20087;-83
2020/12/04 06:10:53;;;;;;;14.95;11.80;;;-1.30;74.90;;;;;;5091304;29;20048;-83
2020/12/04 06:13:34;;;;;;;14.93;11.10;;;-1.30;75.00;;;;;;5094379;29;20442;-84
2020/12/04 06:16:13;;;;;;;21.73;14.63;;;-1.30;75.10;;;;;;5091994;29;20051;-81
2020/12/04 06:18:45;;;;;;;19.73;13.60;;;-1.30;75.10;;;;;;5091806;29;20092;-82
2020/12/04 06:21:46;;;;;;;17.10;13.30;;;-1.30;75.00;;;;;;5092115;29;20051;-82
2020/12/04 06:24:18;;;;;;;16.17;13.20;;;-1.30;75.00;;;;;;5094631;29;20082;-82
2020/12/04 06:26:50;;;;;;;15.70;11.65;;;-1.20;74.90;;;;;;5078177;29;20047;-81
2020/12/04 06:29:21;;;;;;;12.25;10.77;;;-1.20;75.50;;;;;;5091084;29;20048;-81
2020/12/04 06:31:53;;;;;;;12.10;10.05;;;-1.20;74.70;;;;;;5088891;29;20457;-82
2020/12/04 06:34:24;;;;;;;14.07;10.95;;;-1.20;74.40;;;;;;5094505;29;20051;-82
2020/12/04 06:36:56;;;;;;;13.27;11.88;;;-1.20;74.50;;;;;;5091628;29;20047;-81
2020/12/04 06:39:30;;;;;;;15.10;12.00;;;-1.20;74.50;;;;;;5094088;29;20044;-81
2020/12/04 06:42:01;;;;;;;16.50;12.02;;;-1.20;74.70;;;;;;5069260;29;20158;-82
2020/12/04 06:44:33;;;;;;;15.18;11.60;;;-1.20;74.80;;;;;;5091619;29;20098;-82
2020/12/04 06:47:13;;;;;;;17.00;12.43;;;-1.20;74.80;;;;;;5092648;29;20036;-81
2020/12/04 06:49:44;;;;;;;15.18;12.25;;;-1.20;74.90;;;;;;5095901;29;20052;-83
2020/12/04 06:52:19;;;;;;;14.40;12.55;;;-1.20;74.90;;;;;;5078064;29;20044;-82
2020/12/04 06:54:51;;;;;;;15.07;11.80;;;-1.20;75.10;;;;;;5106834;28;20044;-82
2020/12/04 06:57:23;;;;;;;28.02;15.43;;;-1.20;75.20;;;;;;5093912;29;20059;-81
2020/12/04 06:59:55;;;;;;;15.90;13.13;;;-1.20;75.10;;;;;;5093274;29;20055;-81
2020/12/04 07:02:26;;;;;;;15.23;12.20;;;-1.20;74.90;;;;;;5086839;29;20047;-82
2020/12/04 07:04:58;;;;;;;12.95;11.40;;;-1.20;75.10;;;;;;5071807;29;20099;-82
2020/12/04 07:07:29;;;;;;;13.98;11.55;;;-1.30;75.20;;;;;;5076189;29;20466;-82
2020/12/04 07:10:03;;;;;;;13.30;10.65;;;-1.20;75.20;;;;;;5068941;29;20398;-83
2020/12/04 07:12:35;;;;;;;13.55;11.70;;;-1.20;75.30;;;;;;5092275;29;20103;-82
2020/12/04 07:15:06;;;;;;;13.65;11.27;;;-1.20;75.10;;;;;;5094024;29;20071;-80
2020/12/04 07:17:39;;;;;;;17.90;12.85;;;-1.10;75.30;;;;;;5094575;29;20048;-81
2020/12/04 07:20:10;;;;;;;14.07;12.15;;;-1.20;75.30;;;;;;5093910;29;20613;-82
2020/12/04 07:22:42;;;;;;;14.98;12.20;;;-1.20;75.40;;;;;;5078931;29;20063;-82
2020/12/04 07:25:14;;;;;;;18.00;12.63;;;-1.10;75.40;;;;;;5073205;29;20059;-82
2020/12/04 07:27:46;;;;;;;17.23;13.63;;;-1.10;75.20;;;;;;5106315;28;20064;-79
2020/12/04 07:30:18;;;;;;;17.23;13.90;;;-1.10;75.00;;;;;;5092810;29;20716;-79
2020/12/04 07:32:51;;;;;;;15.20;12.30;;;-1.00;75.00;;;;;;5092987;29;20040;-79
2020/12/04 07:35:23;;;;;;;13.73;11.38;;;-1.00;75.10;;;;;;5095403;29;20413;-79
2020/12/04 07:37:55;;;;;;;18.00;13.43;;;-1.10;75.40;;;;;;5091585;29;20043;-79
2020/12/04 07:40:26;;;;;;;16.90;13.32;;;-1.00;75.40;;;;;;5095557;29;20442;-79
2020/12/04 07:42:57;;;;;;;28.55;18.77;;;-1.00;75.60;;;;;;5075543;29;20082;-79
2020/12/04 07:45:29;;;;;;;20.27;15.52;;;-0.90;75.60;;;;;;5094121;29;20051;-79
2020/12/04 07:48:06;;;;;;;15.32;13.48;;;-0.90;75.70;;;;;;5075321;29;20052;-80
2020/12/04 07:50:39;;;;;;;14.45;12.15;;;-0.90;75.50;;;;;;5108251;28;20522;-79
2020/12/04 07:53:11;;;;;;;14.73;12.07;;;-0.90;75.40;;;;;;5078857;29;20044;-79
2020/12/04 07:55:47;;;;;;;13.80;12.25;;;-0.90;75.50;;;;;;5092727;29;20040;-79
2020/12/04 07:58:21;;;;;;;13.15;11.45;;;-0.80;75.60;;;;;;5077046;29;20502;-79
2020/12/04 08:00:57;;;;;;;14.35;11.45;;;-0.80;75.40;;;;;;5090850;29;20043;-79
2020/12/04 08:03:29;;;;;;;13.75;12.25;;;-0.70;75.60;;;;;;5092757;29;20660;-79
2020/12/04 08:06:09;;;;;;;14.68;11.88;;;-0.70;75.60;;;;;;5091721;29;20047;-79
2020/12/04 08:08:40;;;;;;;13.32;11.32;;;-0.70;75.80;;;;;;5108209;28;20051;-79
2020/12/04 08:11:13;;;;;;;13.43;10.88;;;-0.70;76.10;;;;;;5090162;29;20055;-78
2020/12/04 08:13:45;;;;;;;16.20;13.90;;;-0.70;76.90;;;;;;5095605;29;20043;-79
2020/12/04 08:16:19;;;;;;;16.75;14.23;;;-0.70;76.10;;;;;;5091728;29;20056;-79
2020/12/04 08:18:50;;;;;;;16.42;13.88;;;-0.60;76.10;;;;;;5097564;29;20056;-79
2020/12/04 08:21:22;;;;;;;16.38;13.65;;;-0.60;76.00;;;;;;5091884;29;20051;-79
2020/12/04 08:23:54;;;;;;;17.73;14.40;;;-0.60;75.80;;;;;;5092471;29;20067;-79
2020/12/04 08:26:26;;;;;;;17.65;13.55;;;-0.60;75.60;;;;;;5094941;29;20040;-78
2020/12/04 08:28:58;;;;;;;14.65;12.68;;;-0.50;75.70;;;;;;5080958;29;20054;-78
2020/12/04 08:31:29;;;;;;;12.88;11.48;;;-0.50;75.60;;;;;;5092291;29;20044;-79
2020/12/04 08:34:01;;;;;;;15.02;12.43;;;-0.50;75.80;;;;;;5094645;29;20039;-79
2020/12/04 08:36:32;;;;;;;14.05;12.55;;;-0.50;76.00;;;;;;5091891;29;20060;-79
2020/12/04 08:39:04;;;;;;;19.08;14.65;;;-0.40;75.90;;;;;;5093003;29;20040;-79
2020/12/04 08:41:37;;;;;;;14.85;13.35;;;-0.40;76.60;;;;;;5092724;29;20052;-79
2020/12/04 08:44:10;;;;;;;16.77;13.60;;;-0.30;75.80;;;;;;5107192;28;20063;-79
2020/12/04 08:46:41;;;;;;;16.05;14.32;;;-0.30;75.80;;;;;;5090752;29;20048;-79
2020/12/04 08:49:12;;;;;;;17.33;15.25;;;-0.20;75.70;;;;;;5094101;29;20044;-79
2020/12/04 08:51:48;;;;;;;19.58;15.15;;;-0.20;76.20;;;;;;5092757;29;20063;-78
2020/12/04 08:54:19;;;;;;;13.10;11.75;;;-0.10;75.90;;;;;;5110635;28;20101;-75
2020/12/04 08:56:52;;;;;;;12.93;11.43;;;-0.10;75.90;;;;;;5089742;29;20044;-75
2020/12/04 08:59:23;;;;;;;17.70;14.60;;;0.00;76.00;;;;;;5096304;29;20132;-77
2020/12/04 09:01:55;;;;;;;17.98;15.00;;;0.10;76.20;;;;;;5089952;29;20122;-75
2020/12/04 09:04:28;;;;;;;24.83;18.88;;;0.20;76.10;;;;;;5090224;29;20040;-76
2020/12/04 09:06:59;;;;;;;29.45;22.80;;;0.30;76.00;;;;;;5087505;29;20051;-77
2020/12/04 09:09:31;;;;;;;18.38;15.38;;;0.30;75.60;;;;;;5092155;29;20040;-75
2020/12/04 09:12:03;;;;;;;17.85;14.52;;;0.30;75.20;;;;;;5092680;29;20039;-76
2020/12/04 09:14:34;;;;;;;22.00;16.33;;;0.30;75.00;;;;;;5107622;28;20056;-75
2020/12/04 09:17:06;;;;;;;21.30;15.63;;;0.30;75.00;;;;;;5094749;29;20513;-75
2020/12/04 09:19:38;;;;;;;17.90;15.02;;;0.30;75.40;;;;;;5087628;29;20040;-77
2020/12/04 09:22:09;;;;;;;19.17;15.20;;;0.40;75.50;;;;;;5094074;29;20068;-76
2020/12/04 09:24:44;;;;;;;19.52;16.33;;;0.40;75.40;;;;;;5090499;29;20044;-76
2020/12/04 09:27:16;;;;;;;19.25;15.82;;;0.50;75.40;;;;;;5084097;29;20557;-76
2020/12/04 09:29:48;;;;;;;16.98;15.18;;;0.60;76.00;;;;;;5090220;29;20054;-76
2020/12/04 09:32:20;;;;;;;20.35;14.75;;;0.60;75.10;;;;;;5108474;28;20694;-76
2020/12/04 09:34:52;;;;;;;20.92;16.48;;;0.70;74.80;;;;;;5087609;29;20051;-76
2020/12/04 09:37:26;;;;;;;20.42;15.38;;;0.80;74.60;;;;;;5096637;29;20043;-76
2020/12/04 09:40:09;;;;;;;25.45;17.35;;;0.90;74.50;;;;;;5090629;29;20354;-78
2020/12/04 09:42:42;;;;;;;22.17;17.48;;;1.00;74.00;;;;;;5088902;29;20588;-77
2020/12/04 09:45:15;;;;;;;19.08;15.75;;;1.10;74.10;;;;;;5089835;29;20421;-76
2020/12/04 09:47:46;;;;;;;19.25;15.60;;;1.00;73.60;;;;;;5087771;29;20069;-76
2020/12/04 09:50:18;;;;;;;18.83;16.05;;;1.10;73.80;;;;;;5076457;29;20099;-77
2020/12/04 09:52:50;;;;;;;20.58;15.55;;;1.20;74.00;;;;;;5092446;29;20060;-76
2020/12/04 09:55:23;;;;;;;18.85;15.55;;;1.30;73.30;;;;;;5088123;29;20036;-78
2020/12/04 09:57:55;;;;;;;17.02;15.18;;;1.40;73.60;;;;;;5092616;29;20032;-76
2020/12/04 10:00:26;;;;;;;18.88;15.80;;;1.60;73.50;;;;;;5083930;29;20055;-77
2020/12/04 10:02:58;;;;;;;21.67;16.05;;;1.60;74.00;;;;;;5092123;29;20115;-77
2020/12/04 10:05:29;;;;;;;19.17;14.60;;;1.60;72.00;;;;;;5092002;28;20055;-78
2020/12/04 10:08:01;;;;;;;16.08;14.38;;;1.70;73.00;;;;;;5087595;29;20191;-78
2020/12/04 10:10:32;;;;;;;18.55;15.02;;;1.90;73.00;;;;;;5092845;29;20059;-79
2020/12/04 10:13:04;;;;;;;18.15;15.90;;;2.00;73.10;;;;;;5091067;29;20048;-76
2020/12/04 10:15:35;;;;;;;16.60;14.77;;;2.20;72.20;;;;;;5094455;29;20440;-77
2020/12/04 10:18:07;;;;;;;19.88;16.75;;;2.30;70.50;;;;;;5092104;29;20119;-77
2020/12/04 10:20:39;;;;;;;19.30;14.70;;;2.40;71.30;;;;;;5092873;29;20052;-77
2020/12/04 10:23:10;;;;;;;18.80;15.38;;;2.60;71.00;;;;;;5092599;29;20056;-77
2020/12/04 10:25:41;;;;;;;24.35;16.70;;;2.70;70.00;;;;;;5083427;29;20060;-78
2020/12/04 10:28:14;;;;;;;18.48;15.77;;;2.90;70.20;;;;;;5072609;29;20082;-76
2020/12/04 10:30:46;;;;;;;21.25;16.60;;;3.00;70.30;;;;;;5084052;29;20050;-78
2020/12/04 10:33:17;;;;;;;20.38;16.23;;;3.10;71.00;;;;;;5090475;29;20132;-78
2020/12/04 10:35:48;;;;;;;18.00;15.93;;;3.20;71.10;;;;;;5088757;29;20443;-78
2020/12/04 10:38:20;;;;;;;19.10;15.32;;;3.40;70.60;;;;;;5089764;29;20111;-79
2020/12/04 10:40:51;;;;;;;18.00;15.57;;;3.60;71.20;;;;;;5102346;28;20059;-77
2020/12/04 10:43:23;;;;;;;19.33;15.32;;;3.70;70.80;;;;;;5087084;29;20505;-81
2020/12/04 10:45:54;;;;;;;20.08;16.55;;;3.80;71.10;;;;;;5105112;28;20641;-77
2020/12/04 10:48:26;;;;;;;20.23;16.77;;;3.80;71.00;;;;;;5089482;29;20066;-78
2020/12/04 10:50:57;;;;;;;18.15;16.10;;;3.80;70.90;;;;;;5085600;29;20052;-79
2020/12/04 10:53:29;;;;;;;21.15;17.73;;;3.90;70.80;;;;;;5104589;28;20051;-78
2020/12/04 10:56:01;;;;;;;19.95;17.27;;;3.90;71.10;;;;;;5089300;29;20114;-79
2020/12/04 10:58:33;;;;;;;18.05;16.15;;;4.00;70.10;;;;;;5091232;29;20052;-81
2020/12/04 11:01:05;;;;;;;18.58;16.65;;;3.90;69.90;;;;;;5083524;29;20498;-76
2020/12/04 11:05:26;;;;;;;19.05;17.02;;;4.00;70.60;;;;;;5094007;29;20069;-78
2020/12/04 11:06:28;;;;;;;18.80;15.68;;;4.00;70.70;;;;;;5093296;29;20094;-77
2020/12/04 11:09:00;;;;;;;19.33;16.83;;;4.10;70.10;;;;;;5094010;29;20040;-79
2020/12/04 11:11:32;;;;;;;18.27;16.27;;;4.10;70.10;;;;;;5093953;29;20785;-79
2020/12/04 11:14:04;;;;;;;23.50;20.38;;;4.20;69.90;;;;;;5095979;29;20043;-80
2020/12/04 11:16:39;;;;;;;19.55;17.08;;;4.20;69.20;;;;;;5094074;29;20056;-79
2020/12/04 11:19:11;;;;;;;21.05;17.83;;;4.20;68.30;;;;;;5093542;29;20051;-81
2020/12/04 11:21:42;;;;;;;20.10;17.95;;;4.20;69.10;;;;;;5095954;29;21074;-80
2020/12/04 11:24:14;;;;;;;20.50;18.30;;;4.30;69.80;;;;;;5107499;28;20416;-81
2020/12/04 11:27:01;;;;;;;21.52;18.88;;;4.40;70.10;;;;;;5096137;29;20079;-80
2020/12/04 11:29:33;;;;;;;45.08;31.42;;;4.50;69.70;;;;;;5079650;29;20059;-81
2020/12/04 11:32:04;;;;;;;26.55;22.50;;;4.60;69.20;;;;;;5073139;29;20047;-80
2020/12/04 11:34:36;;;;;;;26.42;19.35;;;4.70;68.80;;;;;;5093264;29;20068;-81
2020/12/04 11:37:11;;;;;;;19.65;17.52;;;4.90;69.20;;;;;;5094671;29;20103;-77
2020/12/04 11:39:43;;;;;;;19.08;17.08;;;5.00;69.00;;;;;;5092624;29;20043;-78
2020/12/04 11:42:14;;;;;;;19.90;17.80;;;5.10;68.30;;;;;;5090315;29;20048;-77
2020/12/04 11:44:46;;;;;;;19.65;17.75;;;5.30;67.50;;;;;;5105504;28;20142;-78
2020/12/04 11:47:17;;;;;;;18.90;16.90;;;5.30;68.00;;;;;;5093978;29;20039;-77
2020/12/04 11:49:49;;;;;;;18.95;16.90;;;5.50;68.00;;;;;;5093141;29;20088;-77
2020/12/04 11:52:20;;;;;;;19.35;17.23;;;5.60;67.30;;;;;;5091290;29;20522;-76
2020/12/04 11:54:52;;;;;;;21.20;17.23;;;5.70;66.80;;;;;;5092174;29;20048;-77
2020/12/04 11:57:23;;;;;;;18.83;16.83;;;5.70;66.50;;;;;;5096954;29;20122;-77
2020/12/04 11:59:55;;;;;;;18.42;16.50;;;5.70;67.70;;;;;;5090294;29;21648;-81
2020/12/04 12:02:27;;;;;;;17.58;15.73;;;5.80;67.90;;;;;;5081823;29;20047;-81
2020/12/04 12:04:59;;;;;;;17.70;15.75;;;5.80;66.20;;;;;;5090856;29;20122;-84
2020/12/04 12:07:31;;;;;;;18.60;15.20;;;5.80;67.10;;;;;;5092498;29;20047;-79
2020/12/04 12:10:05;;;;;;;17.77;15.85;;;5.90;66.50;;;;;;5078480;29;20044;-79
2020/12/04 12:12:38;;;;;;;16.45;14.52;;;6.00;66.80;;;;;;5094014;29;20041;-77
2020/12/04 12:15:10;;;;;;;15.60;14.02;;;6.00;65.40;;;;;;5093320;29;20119;-78
2020/12/04 12:17:41;;;;;;;16.58;14.85;;;5.90;65.40;;;;;;5090991;29;20035;-78
2020/12/04 12:20:13;;;;;;;17.42;15.73;;;5.90;67.30;;;;;;5087708;29;20040;-77
2020/12/04 12:22:44;;;;;;;17.20;15.40;;;5.90;67.20;;;;;;5090379;29;20667;-78
2020/12/04 12:25:16;;;;;;;16.45;14.80;;;5.80;66.60;;;;;;5089538;29;20144;-78
2020/12/04 12:27:47;;;;;;;16.98;15.25;;;5.80;67.20;;;;;;5090978;29;20040;-81
2020/12/04 12:30:19;;;;;;;17.75;15.95;;;5.80;67.80;;;;;;5093221;29;20040;-78
2020/12/04 12:32:50;;;;;;;18.17;16.38;;;5.80;67.90;;;;;;5092208;29;20059;-82
2020/12/04 12:35:24;;;;;;;17.30;15.50;;;5.80;67.50;;;;;;5092708;29;20043;-82
2020/12/04 12:37:55;;;;;;;15.57;14.05;;;5.60;67.10;;;;;;5086174;29;20119;-82
2020/12/04 12:40:28;;;;;;;15.20;13.65;;;5.50;67.90;;;;;;5092965;29;20048;-83
2020/12/04 12:42:59;;;;;;;14.90;13.40;;;5.40;67.50;;;;;;5094085;29;20095;-81
2020/12/04 12:45:31;;;;;;;13.05;11.93;;;5.30;65.90;;;;;;5092302;29;20036;-82
2020/12/04 12:48:02;;;;;;;13.20;11.98;;;5.20;65.70;;;;;;5092565;29;20085;-82
2020/12/04 12:50:34;;;;;;;12.90;11.70;;;5.20;66.70;;;;;;5086057;29;20047;-83
2020/12/04 12:53:05;;;;;;;13.13;12.02;;;5.20;66.60;;;;;;5092486;29;20064;-80
2020/12/04 12:55:37;;;;;;;13.85;12.52;;;4.90;66.70;;;;;;5089837;29;20036;-84
2020/12/04 12:58:09;;;;;;;14.23;13.02;;;4.70;66.30;;;;;;5059356;29;20135;-82
2020/12/04 13:00:41;;;;;;;13.52;12.32;;;4.70;66.40;;;;;;5091151;29;20466;-80